createdAt,value
2018-07-30T00:01:57.955Z,11.53
2018-07-30T00:04:30.095Z,12.10
2018-07-30T00:06:59.527Z,11.53
2018-07-30T00:09:28.917Z,12.20
2018-07-30T00:11:59.057Z,12.53
2018-07-30T00:14:28.497Z,10.97
2018-07-30T00:16:57.957Z,11.77
2018-07-30T00:19:27.975Z,10.77
2018-07-30T00:21:57.608Z,11.87
2018-07-30T00:24:28.566Z,11.40
2018-07-30T00:26:57.971Z,10.77
2018-07-30T00:29:27.322Z,11.20
2018-07-30T00:31:56.697Z,11.70
2018-07-30T00:34:26.070Z,11.37
2018-07-30T00:36:55.958Z,11.87
2018-07-30T00:39:25.384Z,11.63
2018-07-30T00:41:55.745Z,11.40
2018-07-30T00:44:25.123Z,10.27
2018-07-30T00:46:54.541Z,11.53
2018-07-30T00:49:24.052Z,11.50
2018-07-30T00:51:54.102Z,11.37
2018-07-30T00:54:23.474Z,12.70
2018-07-30T00:56:52.926Z,11.67
2018-07-30T00:59:22.454Z,10.57
2018-07-30T01:01:51.975Z,11.93
2018-07-30T01:04:21.326Z,10.37
2018-07-30T01:06:50.700Z,11.60
2018-07-30T01:09:20.886Z,12.23
2018-07-30T01:11:50.420Z,11.30
2018-07-30T01:14:19.803Z,12.60
2018-07-30T01:16:49.220Z,11.73
2018-07-30T01:19:18.899Z,12.27
2018-07-30T01:21:48.565Z,11.20
2018-07-30T01:24:18.144Z,12.37
2018-07-30T01:26:47.732Z,11.10
2018-07-30T01:29:17.157Z,12.03
2018-07-30T01:31:46.847Z,11.20
2018-07-30T01:34:16.243Z,10.60
2018-07-30T01:36:45.724Z,10.87
2018-07-30T01:39:15.200Z,11.33
2018-07-30T01:41:44.902Z,12.17
2018-07-30T01:44:14.257Z,12.27
2018-07-30T01:46:43.709Z,12.23
2018-07-30T01:49:13.191Z,12.60
2018-07-30T01:51:42.675Z,13.10
2018-07-30T01:54:12.079Z,12.23
2018-07-30T01:56:41.433Z,12.57
2018-07-30T01:59:10.821Z,12.50
2018-07-30T02:01:40.231Z,12.30
2018-07-30T02:04:09.720Z,11.70
2018-07-30T02:06:39.102Z,12.67
2018-07-30T02:09:10.492Z,12.27
2018-07-30T02:11:39.904Z,11.50
2018-07-30T02:14:09.324Z,13.67
2018-07-30T02:16:39.004Z,11.83
2018-07-30T02:19:08.519Z,13.60
2018-07-30T02:21:37.953Z,12.87
2018-07-30T02:24:07.369Z,12.53
2018-07-30T02:26:36.796Z,13.00
2018-07-30T02:29:06.250Z,13.53
2018-07-30T02:31:35.968Z,13.23
2018-07-30T02:34:06.107Z,13.00
2018-07-30T02:36:35.565Z,11.20
2018-07-30T02:39:09.630Z,13.43
2018-07-30T02:41:39.369Z,11.80
2018-07-30T02:44:09.050Z,13.83
2018-07-30T02:46:39.829Z,12.70
2018-07-30T02:49:10.206Z,12.57
2018-07-30T02:51:39.668Z,12.47
2018-07-30T02:54:09.316Z,11.70
2018-07-30T02:56:38.858Z,13.13
2018-07-30T02:59:08.589Z,12.03
2018-07-30T03:01:38.000Z,11.33
2018-07-30T03:04:08.022Z,11.87
2018-07-30T03:06:37.392Z,11.67
2018-07-30T03:09:09.635Z,11.00
2018-07-30T03:11:39.355Z,11.00
2018-07-30T03:14:09.285Z,13.87
2018-07-30T03:16:39.611Z,11.17
2018-07-30T03:19:09.322Z,10.70
2018-07-30T03:21:39.268Z,11.50
2018-07-30T03:24:08.645Z,12.53
2018-07-30T03:26:38.021Z,12.17
2018-07-30T03:29:07.441Z,12.63
2018-07-30T03:31:36.860Z,13.13
2018-07-30T03:34:06.662Z,13.10
2018-07-30T03:36:36.153Z,11.73
2018-07-30T03:39:07.909Z,12.90
2018-07-30T03:41:37.304Z,12.60
2018-07-30T03:44:07.486Z,12.50
2018-07-30T03:46:37.205Z,12.70
2018-07-30T03:49:06.743Z,11.77
2018-07-30T03:51:36.132Z,12.60
2018-07-30T03:54:06.119Z,12.73
2018-07-30T03:56:36.469Z,13.33
2018-07-30T03:59:06.146Z,12.93
2018-07-30T04:01:35.545Z,13.50
2018-07-30T04:04:04.967Z,13.87
2018-07-30T04:06:34.376Z,13.63
2018-07-30T04:09:04.365Z,14.27
2018-07-30T04:11:33.740Z,14.27
2018-07-30T04:14:03.151Z,13.63
2018-07-30T04:16:36.936Z,12.30
2018-07-30T04:19:06.420Z,13.33
2018-07-30T04:21:35.786Z,12.70
2018-07-30T04:24:05.928Z,13.70
2018-07-30T04:26:36.559Z,12.40
2018-07-30T04:29:06.321Z,13.50
2018-07-30T04:31:35.701Z,12.07
2018-07-30T04:34:05.302Z,12.70
2018-07-30T04:36:35.269Z,13.90
2018-07-30T04:39:07.796Z,14.13
2018-07-30T04:41:37.211Z,14.87
2018-07-30T04:44:07.057Z,12.60
2018-07-30T04:46:37.015Z,13.67
2018-07-30T04:49:06.688Z,13.77
2018-07-30T04:51:37.060Z,13.20
2018-07-30T04:54:06.702Z,13.10
2018-07-30T04:56:36.124Z,13.80
2018-07-30T04:59:05.524Z,13.63
2018-07-30T05:01:34.905Z,13.10
2018-07-30T05:04:04.332Z,12.43
2018-07-30T05:06:33.709Z,13.13
2018-07-30T05:09:03.144Z,12.07
2018-07-30T05:11:33.378Z,13.47
2018-07-30T05:14:02.845Z,10.77
2018-07-30T05:16:32.216Z,11.13
2018-07-30T05:19:02.252Z,11.20
2018-07-30T05:21:31.616Z,11.50
2018-07-30T05:24:01.380Z,11.70
2018-07-30T05:26:30.805Z,11.10
2018-07-30T05:29:02.101Z,11.20
2018-07-30T05:31:31.855Z,12.17
2018-07-30T05:34:02.144Z,10.33
2018-07-30T05:36:31.544Z,10.57
2018-07-30T05:39:01.917Z,11.80
2018-07-30T05:41:31.360Z,10.90
2018-07-30T05:44:00.807Z,10.70
2018-07-30T05:46:30.443Z,10.90
2018-07-30T05:48:59.828Z,11.60
2018-07-30T05:51:29.216Z,9.03
2018-07-30T05:53:59.233Z,9.90
2018-07-30T05:56:28.615Z,8.87
2018-07-30T05:58:57.999Z,11.00
2018-07-30T06:01:27.391Z,9.47
2018-07-30T06:03:56.856Z,8.50
2018-07-30T06:06:26.402Z,9.20
2018-07-30T06:08:55.917Z,9.03
2018-07-30T06:11:25.362Z,9.97
2018-07-30T06:13:55.086Z,10.20
2018-07-30T06:16:24.453Z,8.97
2018-07-30T06:18:54.404Z,8.80
2018-07-30T06:21:23.788Z,8.47
2018-07-30T06:23:53.197Z,10.30
2018-07-30T06:26:22.606Z,9.03
2018-07-30T06:28:52.200Z,8.77
2018-07-30T06:31:21.537Z,8.77
2018-07-30T06:33:50.884Z,8.90
2018-07-30T06:36:20.344Z,9.50
2018-07-30T06:38:49.721Z,8.90
2018-07-30T06:41:19.536Z,9.30
2018-07-30T06:43:49.547Z,8.93
2018-07-30T06:46:18.978Z,8.47
2018-07-30T06:48:48.366Z,8.87
2018-07-30T06:51:17.763Z,10.00
2018-07-30T06:53:47.582Z,8.47
2018-07-30T06:56:17.257Z,9.00
2018-07-30T06:58:46.609Z,8.93
2018-07-30T07:01:16.046Z,8.10
2018-07-30T07:03:45.392Z,9.57
2018-07-30T07:06:14.844Z,9.00
2018-07-30T07:08:44.201Z,8.50
2018-07-30T07:11:14.172Z,8.47
2018-07-30T07:13:43.852Z,9.77
2018-07-30T07:16:13.734Z,8.93
2018-07-30T07:18:43.333Z,9.07
2018-07-30T07:21:12.776Z,8.57
2018-07-30T07:23:43.139Z,8.97
2018-07-30T07:26:12.561Z,9.20
2018-07-30T07:28:42.373Z,8.50
2018-07-30T07:31:11.962Z,9.77
2018-07-30T07:33:42.041Z,8.90
2018-07-30T07:36:11.599Z,9.40
2018-07-30T07:38:42.259Z,9.43
2018-07-30T07:41:12.279Z,9.07
2018-07-30T07:43:42.510Z,10.53
2018-07-30T07:46:11.863Z,10.80
2018-07-30T07:48:42.089Z,9.33
2018-07-30T07:51:11.527Z,9.40
2018-07-30T07:53:41.016Z,9.10
2018-07-30T07:56:10.762Z,9.93
2018-07-30T07:58:40.155Z,9.17
2018-07-30T08:01:09.589Z,10.10
2018-07-30T08:03:38.988Z,9.93
2018-07-30T08:06:08.674Z,10.63
2018-07-30T08:08:38.148Z,9.13
2018-07-30T08:11:09.335Z,10.00
2018-07-30T08:13:38.680Z,10.87
2018-07-30T08:16:08.048Z,9.87
2018-07-30T08:18:37.443Z,9.90
2018-07-30T08:21:07.242Z,9.93
2018-07-30T08:23:37.645Z,9.63
2018-07-30T08:26:07.056Z,8.90
2018-07-30T08:28:36.997Z,8.30
2018-07-30T08:31:08.172Z,9.40
2018-07-30T08:33:37.557Z,9.20
2018-07-30T08:36:07.289Z,9.03
2018-07-30T08:38:36.906Z,9.07
2018-07-30T08:41:06.762Z,8.90
2018-07-30T08:43:36.171Z,10.80
2018-07-30T08:46:05.613Z,9.10
2018-07-30T08:48:35.431Z,9.23
2018-07-30T08:51:04.842Z,8.87
2018-07-30T08:53:34.488Z,9.50
2018-07-30T08:56:03.888Z,10.17
2018-07-30T08:58:33.362Z,9.43
2018-07-30T09:01:03.160Z,9.53
2018-07-30T09:03:32.602Z,9.33
2018-07-30T09:06:01.978Z,9.63
2018-07-30T09:08:31.500Z,8.97
2018-07-30T09:11:01.476Z,8.80
2018-07-30T09:13:31.040Z,8.83
2018-07-30T09:16:00.413Z,9.70
2018-07-30T09:18:29.798Z,9.27
2018-07-30T09:20:59.189Z,8.93
2018-07-30T09:23:28.568Z,8.57
2018-07-30T09:25:58.347Z,9.90
2018-07-30T09:28:27.703Z,9.17
2018-07-30T09:30:57.090Z,8.63
2018-07-30T09:33:26.757Z,8.63
2018-07-30T09:35:56.133Z,9.47
2018-07-30T09:38:25.532Z,8.10
2018-07-30T09:40:54.941Z,9.20
2018-07-30T09:43:24.284Z,8.50
2018-07-30T09:45:53.655Z,8.13
2018-07-30T09:48:23.731Z,8.23
2018-07-30T09:50:53.587Z,8.10
2018-07-30T09:53:22.930Z,8.83
2018-07-30T09:55:52.368Z,8.17
2018-07-30T09:58:21.750Z,9.10
2018-07-30T10:00:56.235Z,7.40
2018-07-30T10:03:26.117Z,8.83
2018-07-30T10:05:55.524Z,7.87
2018-07-30T10:08:24.888Z,8.00
2018-07-30T10:10:56.317Z,7.80
2018-07-30T10:13:27.100Z,8.83
2018-07-30T10:15:56.523Z,7.43
2018-07-30T10:18:26.215Z,7.30
2018-07-30T10:20:55.815Z,7.47
2018-07-30T10:23:25.552Z,7.47
2018-07-30T10:25:55.184Z,9.27
2018-07-30T10:28:24.570Z,9.10
2018-07-30T10:30:53.992Z,8.20
2018-07-30T10:33:23.815Z,8.80
2018-07-30T10:35:53.204Z,8.37
2018-07-30T10:38:22.760Z,9.23
2018-07-30T10:40:53.913Z,8.30
2018-07-30T10:43:23.294Z,7.73
2018-07-30T10:45:53.263Z,8.23
2018-07-30T10:48:22.756Z,7.90
2018-07-30T10:50:52.124Z,7.50
2018-07-30T10:53:21.864Z,7.90
2018-07-30T10:55:51.240Z,8.63
2018-07-30T10:58:21.592Z,8.50
2018-07-30T11:00:51.027Z,8.97
2018-07-30T11:03:20.601Z,7.90
2018-07-30T11:05:50.765Z,9.00
2018-07-30T11:08:20.425Z,8.87
2018-07-30T11:10:50.781Z,8.10
2018-07-30T11:13:20.173Z,10.20
2018-07-30T11:15:49.544Z,7.53
2018-07-30T11:18:19.574Z,6.40
2018-07-30T11:20:49.312Z,7.43
2018-07-30T11:23:19.392Z,7.10
2018-07-30T11:25:49.012Z,7.50
2018-07-30T11:28:18.472Z,8.23
2018-07-30T11:30:48.627Z,7.70
2018-07-30T11:33:21.744Z,7.67
2018-07-30T11:35:52.633Z,6.53
2018-07-30T11:38:22.007Z,6.20
2018-07-30T11:40:52.698Z,5.63
2018-07-30T11:43:23.866Z,6.60
2018-07-30T11:45:53.254Z,5.90
2018-07-30T11:48:22.692Z,5.80
2018-07-30T11:50:52.886Z,6.10
2018-07-30T11:53:23.197Z,5.67
2018-07-30T11:55:52.565Z,5.83
2018-07-30T11:58:21.908Z,4.67
2018-07-30T12:00:52.963Z,5.30
2018-07-30T12:03:23.229Z,5.30
2018-07-30T12:05:52.593Z,5.30
2018-07-30T12:08:22.566Z,5.30
2018-07-30T12:10:52.825Z,5.50
2018-07-30T12:13:22.281Z,5.80
2018-07-30T12:15:51.837Z,6.07
2018-07-30T12:18:21.246Z,5.63
2018-07-30T12:20:51.633Z,6.90
2018-07-30T12:23:20.985Z,5.00
2018-07-30T12:25:50.369Z,5.37
2018-07-30T12:28:20.529Z,4.80
2018-07-30T12:30:51.168Z,5.17
2018-07-30T12:33:20.368Z,5.50
2018-07-30T12:35:55.758Z,5.23
2018-07-30T12:38:30.138Z,5.37
2018-07-30T12:41:17.493Z,5.57
2018-07-30T12:43:52.250Z,5.10
2018-07-30T12:46:36.332Z,4.83
2018-07-30T12:49:21.698Z,5.17
2018-07-30T12:51:56.471Z,5.83
2018-07-30T12:54:31.946Z,5.30
2018-07-30T12:57:07.112Z,5.17
2018-07-30T12:59:36.516Z,5.40
2018-07-30T13:02:06.529Z,5.17
2018-07-30T13:04:40.496Z,5.50
2018-07-30T13:07:09.892Z,4.10
2018-07-30T13:09:43.533Z,4.57
2018-07-30T13:12:13.904Z,4.50
2018-07-30T13:14:43.492Z,4.70
2018-07-30T13:17:13.032Z,4.57
2018-07-30T13:19:43.332Z,4.57
2018-07-30T13:22:12.719Z,4.50
2018-07-30T13:24:42.164Z,4.27
2018-07-30T13:27:11.704Z,4.50
2018-07-30T13:29:41.048Z,5.73
2018-07-30T13:32:12.459Z,5.20
2018-07-30T13:34:41.850Z,5.00
2018-07-30T13:37:12.857Z,5.50
2018-07-30T13:39:43.049Z,4.93
2018-07-30T13:42:12.445Z,5.03
2018-07-30T13:44:41.857Z,4.40
2018-07-30T13:47:11.264Z,5.13
2018-07-30T13:49:41.047Z,5.63
2018-07-30T13:52:11.871Z,5.03
2018-07-30T13:54:41.751Z,5.30
2018-07-30T13:57:11.181Z,5.00
2018-07-30T13:59:40.964Z,5.80
2018-07-30T14:02:10.416Z,5.53
2018-07-30T14:04:40.100Z,5.07
2018-07-30T14:07:09.486Z,5.03
2018-07-30T14:09:39.630Z,6.10
2018-07-30T14:12:09.169Z,5.20
2018-07-30T14:14:39.179Z,5.87
2018-07-30T14:17:09.205Z,5.90
2018-07-30T14:19:38.600Z,6.63
2018-07-30T14:22:08.070Z,6.13
2018-07-30T14:24:37.457Z,5.33
2018-07-30T14:27:06.802Z,5.90
2018-07-30T14:29:36.837Z,5.93
2018-07-30T14:32:06.517Z,5.40
2018-07-30T14:34:36.056Z,5.43
2018-07-30T14:37:05.404Z,5.67
2018-07-30T14:39:34.809Z,6.60
2018-07-30T14:42:04.185Z,5.87
2018-07-30T14:44:35.540Z,5.87
2018-07-30T14:47:05.953Z,5.63
2018-07-30T14:49:36.307Z,6.00
2018-07-30T14:52:05.693Z,6.20
2018-07-30T14:54:35.768Z,5.77
2018-07-30T14:57:05.161Z,5.60
2018-07-30T14:59:35.469Z,6.60
2018-07-30T15:02:05.041Z,6.40
2018-07-30T15:04:34.426Z,6.30
2018-07-30T15:07:04.253Z,6.90
2018-07-30T15:09:34.184Z,6.03
2018-07-30T15:12:04.541Z,6.87
2018-07-30T15:14:34.140Z,6.63
2018-07-30T15:17:04.082Z,7.40
2018-07-30T15:19:33.833Z,6.20
2018-07-30T15:22:03.372Z,6.80
2018-07-30T15:24:32.737Z,5.80
2018-07-30T15:27:02.467Z,7.53
2018-07-30T15:29:31.932Z,6.53
2018-07-30T15:32:01.294Z,7.90
2018-07-30T15:34:30.749Z,7.03
2018-07-30T15:37:00.184Z,8.80
2018-07-30T15:39:29.565Z,6.93
2018-07-30T15:41:59.291Z,8.17
2018-07-30T15:44:28.765Z,7.70
2018-07-30T15:46:58.749Z,7.63
2018-07-30T15:49:28.123Z,8.73
2018-07-30T15:51:57.616Z,8.07
2018-07-30T15:54:27.042Z,7.57
2018-07-30T15:56:56.605Z,7.70
2018-07-30T15:59:26.006Z,8.23
2018-07-30T16:01:55.460Z,8.50
2018-07-30T16:04:26.284Z,6.80
2018-07-30T16:06:55.672Z,7.73
2018-07-30T16:09:25.180Z,7.40
2018-07-30T16:11:55.204Z,8.60
2018-07-30T16:14:24.573Z,8.47
2018-07-30T16:16:53.924Z,8.47
2018-07-30T16:19:23.305Z,8.70
2018-07-30T16:21:52.729Z,8.07
2018-07-30T16:24:22.390Z,7.83
2018-07-30T16:26:51.763Z,8.27
2018-07-30T16:29:21.168Z,8.70
2018-07-30T16:31:50.588Z,7.80
2018-07-30T16:34:20.486Z,8.67
2018-07-30T16:36:49.903Z,8.43
2018-07-30T16:39:20.232Z,8.93
2018-07-30T16:41:49.593Z,8.70
2018-07-30T16:44:19.649Z,7.87
2018-07-30T16:46:49.299Z,8.20
2018-07-30T16:49:18.877Z,8.03
2018-07-30T16:51:48.552Z,8.37
2018-07-30T16:54:18.960Z,8.10
2018-07-30T16:56:48.366Z,8.20
2018-07-30T16:59:18.190Z,8.70
2018-07-30T17:01:47.563Z,8.57
2018-07-30T17:04:17.181Z,8.20
2018-07-30T17:06:46.675Z,8.27
2018-07-30T17:09:16.293Z,8.93
2018-07-30T17:11:46.421Z,8.43
2018-07-30T17:14:16.471Z,9.27
2018-07-30T17:16:45.865Z,7.27
2018-07-30T17:19:15.269Z,7.47
2018-07-30T17:21:44.621Z,8.27
2018-07-30T17:24:14.000Z,8.00
2018-07-30T17:26:43.421Z,8.03
2018-07-30T17:29:13.468Z,7.80
2018-07-30T17:31:43.412Z,8.30
2018-07-30T17:34:13.114Z,7.60
2018-07-30T17:36:42.469Z,7.50
2018-07-30T17:39:13.499Z,7.50
2018-07-30T17:41:43.223Z,6.60
2018-07-30T17:44:12.828Z,8.23
2018-07-30T17:46:42.173Z,7.30
2018-07-30T17:49:11.932Z,6.70
2018-07-30T17:51:43.150Z,7.20
2018-07-30T17:54:12.809Z,7.67
2018-07-30T17:56:42.200Z,7.20
2018-07-30T17:59:11.608Z,6.80
2018-07-30T18:01:40.997Z,8.30
2018-07-30T18:04:10.402Z,7.03
2018-07-30T18:06:40.399Z,8.70
2018-07-30T18:09:10.402Z,8.07
2018-07-30T18:11:40.014Z,8.73
2018-07-30T18:14:09.985Z,9.10
2018-07-30T18:16:39.671Z,7.90
2018-07-30T18:19:09.062Z,7.10
2018-07-30T18:21:38.421Z,8.10
2018-07-30T18:24:07.798Z,7.47
2018-07-30T18:26:37.205Z,7.33
2018-07-30T18:29:06.861Z,7.53
2018-07-30T18:31:36.220Z,7.67
2018-07-30T18:34:05.925Z,7.50
2018-07-30T18:36:35.309Z,7.83
2018-07-30T18:39:06.046Z,7.77
2018-07-30T18:41:35.912Z,8.30
2018-07-30T18:44:05.908Z,7.70
2018-07-30T18:46:35.292Z,8.70
2018-07-30T18:49:05.207Z,8.33
2018-07-30T18:51:34.618Z,8.03
2018-07-30T18:54:04.294Z,8.03
2018-07-30T18:56:33.720Z,7.50
2018-07-30T18:59:03.283Z,8.60
2018-07-30T19:01:32.628Z,8.43
2018-07-30T19:04:02.677Z,8.50
2018-07-30T19:06:32.133Z,8.00
2018-07-30T19:09:02.135Z,7.93
2018-07-30T19:11:31.782Z,8.23
2018-07-30T19:14:02.130Z,8.80
2018-07-30T19:16:31.526Z,8.13
2018-07-30T19:19:01.695Z,9.03
2018-07-30T19:21:31.136Z,8.63
2018-07-30T19:24:01.072Z,9.73
2018-07-30T19:26:30.640Z,8.73
2018-07-30T19:28:59.996Z,8.50
2018-07-30T19:31:29.965Z,8.73
2018-07-30T19:34:00.849Z,7.80
2018-07-30T19:36:30.849Z,8.73
2018-07-30T19:39:00.291Z,8.37
2018-07-30T19:41:30.709Z,8.63
2018-07-30T19:44:00.559Z,8.77
2018-07-30T19:46:30.103Z,8.70
2018-07-30T19:48:59.474Z,7.57
2018-07-30T19:51:28.916Z,7.90
2018-07-30T19:53:58.520Z,7.80
2018-07-30T19:56:27.999Z,8.13
2018-07-30T19:58:57.703Z,8.10
2018-07-30T20:01:27.723Z,9.10
2018-07-30T20:03:57.657Z,8.33
2018-07-30T20:06:27.094Z,8.80
2018-07-30T20:08:56.597Z,8.63
2018-07-30T20:11:27.000Z,8.60
2018-07-30T20:13:56.645Z,7.47
2018-07-30T20:16:27.274Z,7.50
2018-07-30T20:18:56.657Z,8.57
2018-07-30T20:21:26.971Z,8.40
2018-07-30T20:23:56.443Z,8.70
2018-07-30T20:26:25.947Z,8.07
2018-07-30T20:28:56.649Z,7.37
2018-07-30T20:31:27.555Z,8.33
2018-07-30T20:33:58.122Z,8.40
2018-07-30T20:36:28.475Z,8.20
2018-07-30T20:38:57.904Z,8.30
2018-07-30T20:41:27.353Z,9.60
2018-07-30T20:43:57.383Z,7.60
2018-07-30T20:46:27.042Z,8.40
2018-07-30T20:48:57.023Z,8.30
2018-07-30T20:51:26.676Z,8.30
2018-07-30T20:53:56.049Z,7.60
2018-07-30T20:56:26.088Z,8.50
2018-07-30T20:58:56.509Z,8.20
2018-07-30T21:01:25.881Z,8.80
2018-07-30T21:03:55.295Z,8.47
2018-07-30T21:06:24.705Z,9.03
2018-07-30T21:08:54.285Z,8.90
2018-07-30T21:11:23.667Z,8.73
2018-07-30T21:13:53.402Z,9.00
2018-07-30T21:16:22.760Z,8.47
2018-07-30T21:18:52.152Z,7.50
2018-07-30T21:21:21.539Z,8.80
2018-07-30T21:23:51.810Z,8.80
2018-07-30T21:26:21.174Z,9.03
2018-07-30T21:28:50.557Z,8.47
2018-07-30T21:31:23.609Z,8.93
2018-07-30T21:33:53.762Z,9.00
2018-07-30T21:36:23.124Z,9.33
2018-07-30T21:38:52.528Z,9.33
2018-07-30T21:41:22.624Z,8.60
2018-07-30T21:46:16.233Z,8.40
2018-07-30T21:48:45.628Z,8.93
2018-07-30T21:51:17.436Z,8.80
2018-07-30T21:53:46.801Z,8.90
2018-07-30T21:56:17.761Z,10.07
2018-07-30T21:58:47.382Z,8.83
2018-07-30T22:01:16.821Z,9.50
2018-07-30T22:03:46.198Z,8.43
2018-07-30T22:06:15.620Z,9.07
2018-07-30T22:08:45.009Z,8.10
2018-07-30T22:11:14.401Z,8.37
2018-07-30T22:13:43.955Z,8.30
2018-07-30T22:16:13.344Z,8.17
2018-07-30T22:18:42.717Z,9.60
2018-07-30T22:21:13.062Z,8.33
2018-07-30T22:23:42.493Z,8.87
2018-07-30T22:26:12.702Z,9.07
2018-07-30T22:28:42.143Z,9.00
2018-07-30T22:31:11.498Z,9.97
2018-07-30T22:33:40.848Z,9.03
2018-07-30T22:36:10.348Z,9.57
2018-07-30T22:38:39.772Z,9.37
2018-07-30T22:41:09.236Z,9.13
2018-07-30T22:43:38.598Z,9.23
2018-07-30T22:46:07.961Z,10.30
2018-07-30T22:48:37.626Z,9.03
2018-07-30T22:51:07.013Z,9.00
2018-07-30T22:53:36.461Z,9.60
2018-07-30T22:56:06.784Z,9.13
2018-07-30T22:58:36.197Z,9.27
2018-07-30T23:01:06.159Z,8.87
2018-07-30T23:03:35.657Z,8.97
2018-07-30T23:06:05.770Z,8.80
2018-07-30T23:08:35.266Z,8.60
2018-07-30T23:11:04.890Z,8.23
2018-07-30T23:13:34.237Z,8.20
2018-07-30T23:16:05.520Z,8.13
2018-07-30T23:18:35.234Z,8.10
2018-07-30T23:21:05.276Z,8.43
2018-07-30T23:23:36.006Z,8.63
2018-07-30T23:26:05.513Z,7.93
2018-07-30T23:28:35.335Z,9.10
2018-07-30T23:31:05.859Z,8.83
2018-07-30T23:33:39.998Z,8.83
2018-07-30T23:36:09.374Z,7.87
2018-07-30T23:38:39.724Z,7.93
2018-07-30T23:41:09.215Z,8.97
2018-07-30T23:43:38.611Z,8.23
2018-07-30T23:46:07.975Z,8.43
2018-07-30T23:48:37.601Z,8.57
2018-07-30T23:51:07.499Z,8.90
2018-07-30T23:53:36.990Z,9.47
2018-07-30T23:56:06.441Z,7.97
2018-07-30T23:58:35.797Z,8.07
